sensor_id;sensor_type;location;lat;lon;timestamp;P1;durP1;ratioP1;P2;durP2;ratioP2
40290;SDS011;26000;48.304;13.626;2023-02-11T00:01:47;102.68;;;48.80;;
40290;SDS011;26000;48.304;13.626;2023-02-11T00:04:13;96.25;;;48.70;;
40290;SDS011;26000;48.304;13.626;2023-02-11T00:06:39;91.38;;;47.65;;
40290;SDS011;26000;48.304;13.626;2023-02-11T00:09:04;94.97;;;47.80;;
40290;SDS011;26000;48.304;13.626;2023-02-11T00:11:30;100.88;;;49.03;;
40290;SDS011;26000;48.304;13.626;2023-02-11T00:13:57;96.43;;;47.58;;
40290;SDS011;26000;48.304;13.626;2023-02-11T00:16:24;100.55;;;48.25;;
40290;SDS011;26000;48.304;13.626;2023-02-11T00:18:50;87.28;;;46.13;;
40290;SDS011;26000;48.304;13.626;2023-02-11T00:21:19;97.93;;;47.33;;
40290;SDS011;26000;48.304;13.626;2023-02-11T00:23:49;93.30;;;47.72;;
40290;SDS011;26000;48.304;13.626;2023-02-11T00:26:17;93.78;;;48.40;;
40290;SDS011;26000;48.304;13.626;2023-02-11T00:28:48;98.28;;;48.35;;
40290;SDS011;26000;48.304;13.626;2023-02-11T00:31:15;96.82;;;48.20;;
40290;SDS011;26000;48.304;13.626;2023-02-11T00:33:42;104.32;;;48.92;;
40290;SDS011;26000;48.304;13.626;2023-02-11T00:36:09;105.32;;;49.28;;
40290;SDS011;26000;48.304;13.626;2023-02-11T00:38:38;97.15;;;48.88;;
40290;SDS011;26000;48.304;13.626;2023-02-11T00:41:06;96.45;;;46.75;;
40290;SDS011;26000;48.304;13.626;2023-02-11T00:43:31;94.40;;;47.78;;
40290;SDS011;26000;48.304;13.626;2023-02-11T00:45:57;96.05;;;47.55;;
40290;SDS011;26000;48.304;13.626;2023-02-11T00:48:23;90.07;;;46.45;;
40290;SDS011;26000;48.304;13.626;2023-02-11T00:50:49;97.32;;;48.38;;
40290;SDS011;26000;48.304;13.626;2023-02-11T00:53:14;90.85;;;45.72;;
40290;SDS011;26000;48.304;13.626;2023-02-11T00:55:40;94.65;;;45.38;;
40290;SDS011;26000;48.304;13.626;2023-02-11T00:58:05;97.97;;;47.65;;
40290;SDS011;26000;48.304;13.626;2023-02-11T01:00:31;89.35;;;46.35;;
40290;SDS011;26000;48.304;13.626;2023-02-11T01:02:57;90.28;;;45.53;;
40290;SDS011;26000;48.304;13.626;2023-02-11T01:05:22;89.68;;;46.33;;
40290;SDS011;26000;48.304;13.626;2023-02-11T01:07:48;94.60;;;46.88;;
40290;SDS011;26000;48.304;13.626;2023-02-11T01:10:13;87.35;;;44.60;;
40290;SDS011;26000;48.304;13.626;2023-02-11T01:12:39;97.28;;;48.40;;
40290;SDS011;26000;48.304;13.626;2023-02-11T01:15:05;91.38;;;47.10;;
40290;SDS011;26000;48.304;13.626;2023-02-11T01:17:33;94.05;;;47.50;;
40290;SDS011;26000;48.304;13.626;2023-02-11T01:20:01;95.60;;;46.42;;
40290;SDS011;26000;48.304;13.626;2023-02-11T01:22:31;88.15;;;46.90;;
40290;SDS011;26000;48.304;13.626;2023-02-11T01:24:58;98.25;;;47.45;;
40290;SDS011;26000;48.304;13.626;2023-02-11T01:27:24;87.80;;;46.13;;
40290;SDS011;26000;48.304;13.626;2023-02-11T01:29:50;89.18;;;46.85;;
40290;SDS011;26000;48.304;13.626;2023-02-11T01:32:16;93.75;;;46.13;;
40290;SDS011;26000;48.304;13.626;2023-02-11T01:34:41;96.43;;;47.40;;
40290;SDS011;26000;48.304;13.626;2023-02-11T01:37:07;97.80;;;47.50;;
40290;SDS011;26000;48.304;13.626;2023-02-11T01:39:33;93.85;;;46.22;;
40290;SDS011;26000;48.304;13.626;2023-02-11T01:41:59;93.88;;;45.63;;
40290;SDS011;26000;48.304;13.626;2023-02-11T01:44:35;88.97;;;45.55;;
40290;SDS011;26000;48.304;13.626;2023-02-11T01:47:04;92.15;;;46.15;;
40290;SDS011;26000;48.304;13.626;2023-02-11T01:49:31;91.47;;;45.85;;
40290;SDS011;26000;48.304;13.626;2023-02-11T01:52:01;92.32;;;44.28;;
40290;SDS011;26000;48.304;13.626;2023-02-11T01:54:35;85.93;;;43.53;;
40290;SDS011;26000;48.304;13.626;2023-02-11T01:57:25;98.55;;;45.72;;
40290;SDS011;26000;48.304;13.626;2023-02-11T02:02:22;94.13;;;45.88;;
40290;SDS011;26000;48.304;13.626;2023-02-11T02:08:08;93.20;;;45.83;;
40290;SDS011;26000;48.304;13.626;2023-02-11T02:10:45;97.43;;;45.55;;
40290;SDS011;26000;48.304;13.626;2023-02-11T02:13:13;89.55;;;43.92;;
40290;SDS011;26000;48.304;13.626;2023-02-11T02:16:14;92.38;;;45.97;;
40290;SDS011;26000;48.304;13.626;2023-02-11T02:24:25;92.10;;;44.20;;
40290;SDS011;26000;48.304;13.626;2023-02-11T02:37:40;88.00;;;43.58;;
40290;SDS011;26000;48.304;13.626;2023-02-11T02:40:40;90.97;;;44.80;;
40290;SDS011;26000;48.304;13.626;2023-02-11T02:43:12;92.82;;;44.47;;
40290;SDS011;26000;48.304;13.626;2023-02-11T02:45:39;90.15;;;43.95;;
40290;SDS011;26000;48.304;13.626;2023-02-11T02:48:05;96.97;;;45.60;;
40290;SDS011;26000;48.304;13.626;2023-02-11T02:50:33;87.90;;;43.97;;
40290;SDS011;26000;48.304;13.626;2023-02-11T03:10:20;95.90;;;45.97;;
40290;SDS011;26000;48.304;13.626;2023-02-11T03:12:21;87.03;;;43.55;;
40290;SDS011;26000;48.304;13.626;2023-02-11T03:14:50;93.15;;;45.67;;
40290;SDS011;26000;48.304;13.626;2023-02-11T03:17:16;91.68;;;45.22;;
40290;SDS011;26000;48.304;13.626;2023-02-11T03:19:43;94.28;;;45.90;;
40290;SDS011;26000;48.304;13.626;2023-02-11T03:22:19;89.57;;;45.38;;
40290;SDS011;26000;48.304;13.626;2023-02-11T03:24:49;90.05;;;46.30;;
40290;SDS011;26000;48.304;13.626;2023-02-11T03:27:26;89.57;;;44.65;;
40290;SDS011;26000;48.304;13.626;2023-02-11T03:29:58;89.25;;;45.67;;
40290;SDS011;26000;48.304;13.626;2023-02-11T03:37:45;91.15;;;46.03;;
40290;SDS011;26000;48.304;13.626;2023-02-11T03:40:21;89.72;;;45.55;;
40290;SDS011;26000;48.304;13.626;2023-02-11T03:42:51;87.88;;;45.33;;
40290;SDS011;26000;48.304;13.626;2023-02-11T03:45:26;92.05;;;44.67;;
40290;SDS011;26000;48.304;13.626;2023-02-11T03:47:58;86.93;;;44.42;;
40290;SDS011;26000;48.304;13.626;2023-02-11T03:50:26;91.70;;;45.95;;
40290;SDS011;26000;48.304;13.626;2023-02-11T03:52:54;91.93;;;45.45;;
40290;SDS011;26000;48.304;13.626;2023-02-11T03:55:21;92.15;;;44.80;;
40290;SDS011;26000;48.304;13.626;2023-02-11T03:57:50;98.65;;;46.72;;
40290;SDS011;26000;48.304;13.626;2023-02-11T04:00:16;94.13;;;46.47;;
40290;SDS011;26000;48.304;13.626;2023-02-11T04:02:42;94.68;;;46.65;;
40290;SDS011;26000;48.304;13.626;2023-02-11T04:05:09;91.22;;;45.83;;
40290;SDS011;26000;48.304;13.626;2023-02-11T04:07:36;89.65;;;45.67;;
40290;SDS011;26000;48.304;13.626;2023-02-11T04:10:02;90.18;;;45.10;;
40290;SDS011;26000;48.304;13.626;2023-02-11T04:12:28;91.53;;;46.05;;
40290;SDS011;26000;48.304;13.626;2023-02-11T04:14:54;97.00;;;45.35;;
40290;SDS011;26000;48.304;13.626;2023-02-11T04:17:19;88.47;;;45.55;;
40290;SDS011;26000;48.304;13.626;2023-02-11T04:19:45;85.78;;;44.95;;
40290;SDS011;26000;48.304;13.626;2023-02-11T04:22:10;90.47;;;45.55;;
40290;SDS011;26000;48.304;13.626;2023-02-11T04:24:36;87.25;;;44.13;;
40290;SDS011;26000;48.304;13.626;2023-02-11T04:27:02;88.95;;;45.92;;
40290;SDS011;26000;48.304;13.626;2023-02-11T04:29:28;88.63;;;45.67;;
40290;SDS011;26000;48.304;13.626;2023-02-11T04:31:53;89.97;;;45.00;;
40290;SDS011;26000;48.304;13.626;2023-02-11T04:34:19;92.72;;;45.75;;
40290;SDS011;26000;48.304;13.626;2023-02-11T04:36:45;82.43;;;43.78;;
40290;SDS011;26000;48.304;13.626;2023-02-11T04:39:11;90.75;;;44.78;;
40290;SDS011;26000;48.304;13.626;2023-02-11T04:41:36;87.80;;;43.85;;
40290;SDS011;26000;48.304;13.626;2023-02-11T04:44:02;82.03;;;43.85;;
40290;SDS011;26000;48.304;13.626;2023-02-11T04:46:28;89.63;;;44.05;;
40290;SDS011;26000;48.304;13.626;2023-02-11T04:48:54;87.82;;;44.97;;
40290;SDS011;26000;48.304;13.626;2023-02-11T04:51:20;86.20;;;44.08;;
40290;SDS011;26000;48.304;13.626;2023-02-11T04:53:46;88.13;;;44.05;;
40290;SDS011;26000;48.304;13.626;2023-02-11T04:56:11;87.63;;;43.92;;
40290;SDS011;26000;48.304;13.626;2023-02-11T04:58:37;83.22;;;42.83;;
40290;SDS011;26000;48.304;13.626;2023-02-11T05:01:10;93.18;;;44.35;;
40290;SDS011;26000;48.304;13.626;2023-02-11T05:03:37;93.20;;;45.92;;
40290;SDS011;26000;48.304;13.626;2023-02-11T05:06:03;89.85;;;45.42;;
40290;SDS011;26000;48.304;13.626;2023-02-11T05:08:29;87.63;;;44.78;;
40290;SDS011;26000;48.304;13.626;2023-02-11T05:10:54;83.90;;;42.85;;
40290;SDS011;26000;48.304;13.626;2023-02-11T05:13:20;90.82;;;44.88;;
40290;SDS011;26000;48.304;13.626;2023-02-11T05:15:46;82.68;;;43.58;;
40290;SDS011;26000;48.304;13.626;2023-02-11T05:18:12;86.70;;;45.22;;
40290;SDS011;26000;48.304;13.626;2023-02-11T05:20:39;86.30;;;44.63;;
40290;SDS011;26000;48.304;13.626;2023-02-11T05:23:05;86.63;;;43.80;;
40290;SDS011;26000;48.304;13.626;2023-02-11T05:25:31;80.68;;;41.92;;
40290;SDS011;26000;48.304;13.626;2023-02-11T05:27:57;89.13;;;43.53;;
40290;SDS011;26000;48.304;13.626;2023-02-11T05:30:23;91.25;;;45.13;;
40290;SDS011;26000;48.304;13.626;2023-02-11T05:32:48;86.35;;;43.88;;
40290;SDS011;26000;48.304;13.626;2023-02-11T05:35:14;78.60;;;41.72;;
40290;SDS011;26000;48.304;13.626;2023-02-11T05:37:39;87.03;;;43.90;;
40290;SDS011;26000;48.304;13.626;2023-02-11T05:40:05;83.93;;;43.72;;
40290;SDS011;26000;48.304;13.626;2023-02-11T05:42:31;94.75;;;45.92;;
40290;SDS011;26000;48.304;13.626;2023-02-11T05:44:56;95.20;;;47.50;;
40290;SDS011;26000;48.304;13.626;2023-02-11T05:47:22;91.05;;;47.75;;
40290;SDS011;26000;48.304;13.626;2023-02-11T05:49:48;88.07;;;46.03;;
40290;SDS011;26000;48.304;13.626;2023-02-11T05:52:15;92.15;;;45.33;;
40290;SDS011;26000;48.304;13.626;2023-02-11T05:54:40;84.45;;;45.45;;
40290;SDS011;26000;48.304;13.626;2023-02-11T05:57:06;86.07;;;45.92;;
40290;SDS011;26000;48.304;13.626;2023-02-11T05:59:32;89.28;;;45.60;;
40290;SDS011;26000;48.304;13.626;2023-02-11T06:01:57;89.00;;;45.67;;
40290;SDS011;26000;48.304;13.626;2023-02-11T06:04:23;90.20;;;46.85;;
40290;SDS011;26000;48.304;13.626;2023-02-11T06:06:48;85.65;;;45.75;;
40290;SDS011;26000;48.304;13.626;2023-02-11T06:09:14;97.20;;;47.72;;
40290;SDS011;26000;48.304;13.626;2023-02-11T06:11:39;92.15;;;47.50;;
40290;SDS011;26000;48.304;13.626;2023-02-11T06:14:05;86.80;;;45.50;;
40290;SDS011;26000;48.304;13.626;2023-02-11T06:16:31;84.75;;;44.83;;
40290;SDS011;26000;48.304;13.626;2023-02-11T06:18:56;83.20;;;44.95;;
40290;SDS011;26000;48.304;13.626;2023-02-11T06:21:22;83.32;;;43.78;;
40290;SDS011;26000;48.304;13.626;2023-02-11T06:23:47;83.78;;;44.83;;
40290;SDS011;26000;48.304;13.626;2023-02-11T06:26:20;84.20;;;43.95;;
40290;SDS011;26000;48.304;13.626;2023-02-11T06:28:47;85.10;;;43.28;;
40290;SDS011;26000;48.304;13.626;2023-02-11T06:31:13;83.15;;;44.13;;
40290;SDS011;26000;48.304;13.626;2023-02-11T06:33:38;90.00;;;45.00;;
40290;SDS011;26000;48.304;13.626;2023-02-11T06:36:08;78.22;;;41.20;;
40290;SDS011;26000;48.304;13.626;2023-02-11T06:38:39;82.97;;;42.53;;
40290;SDS011;26000;48.304;13.626;2023-02-11T06:41:07;75.85;;;39.63;;
40290;SDS011;26000;48.304;13.626;2023-02-11T06:43:36;71.32;;;39.70;;
40290;SDS011;26000;48.304;13.626;2023-02-11T06:46:01;76.70;;;40.80;;
40290;SDS011;26000;48.304;13.626;2023-02-11T06:48:27;75.55;;;40.08;;
40290;SDS011;26000;48.304;13.626;2023-02-11T06:50:53;68.85;;;38.83;;
40290;SDS011;26000;48.304;13.626;2023-02-11T06:53:18;71.60;;;38.00;;
40290;SDS011;26000;48.304;13.626;2023-02-11T06:55:44;70.60;;;37.83;;
40290;SDS011;26000;48.304;13.626;2023-02-11T06:58:09;73.90;;;39.50;;
40290;SDS011;26000;48.304;13.626;2023-02-11T07:00:35;74.82;;;39.80;;
40290;SDS011;26000;48.304;13.626;2023-02-11T07:03:01;70.65;;;37.25;;
40290;SDS011;26000;48.304;13.626;2023-02-11T07:05:27;73.15;;;39.83;;
40290;SDS011;26000;48.304;13.626;2023-02-11T07:07:53;72.13;;;40.10;;
40290;SDS011;26000;48.304;13.626;2023-02-11T07:10:18;74.70;;;39.80;;
40290;SDS011;26000;48.304;13.626;2023-02-11T07:12:44;71.68;;;40.47;;
40290;SDS011;26000;48.304;13.626;2023-02-11T07:15:09;71.18;;;38.97;;
40290;SDS011;26000;48.304;13.626;2023-02-11T07:17:35;76.82;;;41.03;;
40290;SDS011;26000;48.304;13.626;2023-02-11T07:20:01;75.75;;;40.60;;
40290;SDS011;26000;48.304;13.626;2023-02-11T07:22:27;74.32;;;40.63;;
40290;SDS011;26000;48.304;13.626;2023-02-11T07:24:53;77.70;;;43.80;;
40290;SDS011;26000;48.304;13.626;2023-02-11T07:27:18;75.82;;;42.08;;
40290;SDS011;26000;48.304;13.626;2023-02-11T07:29:44;77.45;;;42.80;;
40290;SDS011;26000;48.304;13.626;2023-02-11T07:32:11;83.28;;;43.65;;
40290;SDS011;26000;48.304;13.626;2023-02-11T07:34:37;78.50;;;43.70;;
40290;SDS011;26000;48.304;13.626;2023-02-11T07:37:03;88.93;;;45.83;;
40290;SDS011;26000;48.304;13.626;2023-02-11T07:39:29;80.28;;;43.67;;
40290;SDS011;26000;48.304;13.626;2023-02-11T07:41:54;77.90;;;41.97;;
40290;SDS011;26000;48.304;13.626;2023-02-11T07:44:20;78.93;;;41.65;;
40290;SDS011;26000;48.304;13.626;2023-02-11T07:46:46;78.28;;;41.90;;
40290;SDS011;26000;48.304;13.626;2023-02-11T07:49:13;74.90;;;41.70;;
40290;SDS011;26000;48.304;13.626;2023-02-11T07:51:39;78.47;;;41.00;;
40290;SDS011;26000;48.304;13.626;2023-02-11T07:54:05;75.07;;;41.17;;
40290;SDS011;26000;48.304;13.626;2023-02-11T07:56:31;74.68;;;41.13;;
40290;SDS011;26000;48.304;13.626;2023-02-11T07:58:59;77.30;;;40.30;;
40290;SDS011;26000;48.304;13.626;2023-02-11T08:01:27;74.68;;;40.03;;
40290;SDS011;26000;48.304;13.626;2023-02-11T08:03:54;78.93;;;40.83;;
40290;SDS011;26000;48.304;13.626;2023-02-11T08:06:22;70.90;;;38.72;;
40290;SDS011;26000;48.304;13.626;2023-02-11T08:08:49;75.43;;;41.10;;
40290;SDS011;26000;48.304;13.626;2023-02-11T08:13:43;74.97;;;39.92;;
40290;SDS011;26000;48.304;13.626;2023-02-11T08:16:16;73.38;;;38.53;;
40290;SDS011;26000;48.304;13.626;2023-02-11T08:18:49;78.50;;;38.58;;
40290;SDS011;26000;48.304;13.626;2023-02-11T08:21:22;68.93;;;38.25;;
40290;SDS011;26000;48.304;13.626;2023-02-11T08:23:48;71.47;;;39.53;;
40290;SDS011;26000;48.304;13.626;2023-02-11T08:26:19;76.63;;;40.83;;
40290;SDS011;26000;48.304;13.626;2023-02-11T08:28:50;85.13;;;45.40;;
40290;SDS011;26000;48.304;13.626;2023-02-11T08:31:18;72.05;;;42.13;;
40290;SDS011;26000;48.304;13.626;2023-02-11T08:33:45;77.97;;;43.05;;
40290;SDS011;26000;48.304;13.626;2023-02-11T08:36:16;83.10;;;44.60;;
40290;SDS011;26000;48.304;13.626;2023-02-11T08:38:43;56.80;;;32.40;;
40290;SDS011;26000;48.304;13.626;2023-02-11T08:41:09;51.67;;;28.08;;
40290;SDS011;26000;48.304;13.626;2023-02-11T08:43:35;48.20;;;26.50;;
40290;SDS011;26000;48.304;13.626;2023-02-11T08:46:01;42.38;;;24.73;;
40290;SDS011;26000;48.304;13.626;2023-02-11T08:48:27;46.85;;;25.02;;
40290;SDS011;26000;48.304;13.626;2023-02-11T08:50:53;45.55;;;24.65;;
40290;SDS011;26000;48.304;13.626;2023-02-11T08:53:20;44.67;;;24.65;;
40290;SDS011;26000;48.304;13.626;2023-02-11T08:55:52;41.33;;;25.33;;
40290;SDS011;26000;48.304;13.626;2023-02-11T08:58:19;43.58;;;24.85;;
40290;SDS011;26000;48.304;13.626;2023-02-11T09:00:46;40.15;;;23.65;;
40290;SDS011;26000;48.304;13.626;2023-02-11T09:03:13;43.22;;;23.60;;
40290;SDS011;26000;48.304;13.626;2023-02-11T09:05:43;35.72;;;22.45;;
40290;SDS011;26000;48.304;13.626;2023-02-11T09:08:10;35.28;;;20.08;;
40290;SDS011;26000;48.304;13.626;2023-02-11T09:10:36;35.47;;;20.95;;
40290;SDS011;26000;48.304;13.626;2023-02-11T09:13:02;36.80;;;21.38;;
40290;SDS011;26000;48.304;13.626;2023-02-11T09:15:27;53.58;;;24.88;;
40290;SDS011;26000;48.304;13.626;2023-02-11T09:17:53;69.03;;;31.73;;
40290;SDS011;26000;48.304;13.626;2023-02-11T09:20:19;61.22;;;31.75;;
40290;SDS011;26000;48.304;13.626;2023-02-11T09:22:45;48.10;;;28.58;;
40290;SDS011;26000;48.304;13.626;2023-02-11T09:25:11;50.55;;;28.50;;
40290;SDS011;26000;48.304;13.626;2023-02-11T09:27:36;61.58;;;31.33;;
40290;SDS011;26000;48.304;13.626;2023-02-11T09:30:02;55.80;;;29.65;;
40290;SDS011;26000;48.304;13.626;2023-02-11T09:32:28;47.70;;;27.38;;
40290;SDS011;26000;48.304;13.626;2023-02-11T09:34:54;43.00;;;25.45;;
40290;SDS011;26000;48.304;13.626;2023-02-11T09:37:19;41.90;;;24.60;;
40290;SDS011;26000;48.304;13.626;2023-02-11T09:39:45;43.08;;;25.13;;
40290;SDS011;26000;48.304;13.626;2023-02-11T09:42:26;40.83;;;24.67;;
40290;SDS011;26000;48.304;13.626;2023-02-11T09:45:11;70.50;;;42.05;;
40290;SDS011;26000;48.304;13.626;2023-02-11T09:47:44;45.38;;;26.45;;
40290;SDS011;26000;48.304;13.626;2023-02-11T09:50:15;44.90;;;27.00;;
40290;SDS011;26000;48.304;13.626;2023-02-11T09:57:50;37.70;;;22.20;;
40290;SDS011;26000;48.304;13.626;2023-02-11T10:00:20;40.40;;;20.55;;
40290;SDS011;26000;48.304;13.626;2023-02-11T10:11:20;24.25;;;15.27;;
40290;SDS011;26000;48.304;13.626;2023-02-11T10:19:03;32.55;;;18.88;;
40290;SDS011;26000;48.304;13.626;2023-02-11T10:22:03;28.95;;;18.25;;
40290;SDS011;26000;48.304;13.626;2023-02-11T10:24:34;25.75;;;14.68;;
40290;SDS011;26000;48.304;13.626;2023-02-11T10:27:03;25.77;;;14.13;;
40290;SDS011;26000;48.304;13.626;2023-02-11T10:29:48;24.17;;;14.60;;
40290;SDS011;26000;48.304;13.626;2023-02-11T10:32:47;24.65;;;15.05;;
40290;SDS011;26000;48.304;13.626;2023-02-11T10:39:09;22.00;;;14.35;;
40290;SDS011;26000;48.304;13.626;2023-02-11T10:47:44;26.48;;;16.17;;
40290;SDS011;26000;48.304;13.626;2023-02-11T10:53:11;33.08;;;16.85;;
40290;SDS011;26000;48.304;13.626;2023-02-11T10:56:00;28.02;;;17.17;;
40290;SDS011;26000;48.304;13.626;2023-02-11T10:59:23;27.90;;;17.77;;
40290;SDS011;26000;48.304;13.626;2023-02-11T11:02:32;26.77;;;16.63;;
40290;SDS011;26000;48.304;13.626;2023-02-11T11:08:24;31.77;;;18.58;;
40290;SDS011;26000;48.304;13.626;2023-02-11T11:11:21;29.90;;;18.02;;
40290;SDS011;26000;48.304;13.626;2023-02-11T11:14:25;32.83;;;18.95;;
40290;SDS011;26000;48.304;13.626;2023-02-11T11:17:01;32.97;;;19.60;;
40290;SDS011;26000;48.304;13.626;2023-02-11T11:26:21;30.48;;;19.67;;
40290;SDS011;26000;48.304;13.626;2023-02-11T11:29:39;33.25;;;20.38;;
40290;SDS011;26000;48.304;13.626;2023-02-11T11:32:30;34.28;;;20.52;;
40290;SDS011;26000;48.304;13.626;2023-02-11T11:38:10;34.95;;;20.52;;
40290;SDS011;26000;48.304;13.626;2023-02-11T11:44:33;32.72;;;19.95;;
40290;SDS011;26000;48.304;13.626;2023-02-11T11:57:43;36.05;;;21.02;;
40290;SDS011;26000;48.304;13.626;2023-02-11T12:00:16;34.05;;;20.73;;
40290;SDS011;26000;48.304;13.626;2023-02-11T12:06:11;34.15;;;19.90;;
40290;SDS011;26000;48.304;13.626;2023-02-11T12:32:13;29.50;;;18.30;;
40290;SDS011;26000;48.304;13.626;2023-02-11T12:38:25;32.93;;;20.43;;
40290;SDS011;26000;48.304;13.626;2023-02-11T12:42:30;33.78;;;20.30;;
40290;SDS011;26000;48.304;13.626;2023-02-11T12:55:57;36.55;;;24.10;;
40290;SDS011;26000;48.304;13.626;2023-02-11T12:58:33;37.28;;;22.40;;
40290;SDS011;26000;48.304;13.626;2023-02-11T13:01:04;41.50;;;25.15;;
40290;SDS011;26000;48.304;13.626;2023-02-11T13:06:19;40.17;;;24.48;;
40290;SDS011;26000;48.304;13.626;2023-02-11T13:08:52;43.05;;;25.42;;
40290;SDS011;26000;48.304;13.626;2023-02-11T13:11:24;42.13;;;27.10;;
40290;SDS011;26000;48.304;13.626;2023-02-11T13:16:45;43.38;;;25.45;;
40290;SDS011;26000;48.304;13.626;2023-02-11T13:35:39;42.35;;;26.02;;
40290;SDS011;26000;48.304;13.626;2023-02-11T13:38:18;44.05;;;26.60;;
40290;SDS011;26000;48.304;13.626;2023-02-11T13:43:28;48.28;;;27.45;;
40290;SDS011;26000;48.304;13.626;2023-02-11T13:46:02;43.25;;;27.88;;
40290;SDS011;26000;48.304;13.626;2023-02-11T13:48:35;52.97;;;29.65;;
40290;SDS011;26000;48.304;13.626;2023-02-11T13:51:14;47.33;;;29.13;;
40290;SDS011;26000;48.304;13.626;2023-02-11T13:57:13;50.17;;;30.20;;
40290;SDS011;26000;48.304;13.626;2023-02-11T14:04:36;56.80;;;35.13;;
40290;SDS011;26000;48.304;13.626;2023-02-11T14:07:44;62.47;;;38.45;;
40290;SDS011;26000;48.304;13.626;2023-02-11T14:15:56;61.45;;;36.88;;
40290;SDS011;26000;48.304;13.626;2023-02-11T14:21:16;59.22;;;37.08;;
40290;SDS011;26000;48.304;13.626;2023-02-11T14:23:43;65.30;;;39.15;;
40290;SDS011;26000;48.304;13.626;2023-02-11T14:31:23;64.70;;;39.28;;
40290;SDS011;26000;48.304;13.626;2023-02-11T14:36:56;62.45;;;38.45;;
40290;SDS011;26000;48.304;13.626;2023-02-11T14:42:17;68.45;;;38.92;;
40290;SDS011;26000;48.304;13.626;2023-02-11T14:44:46;70.25;;;39.30;;
40290;SDS011;26000;48.304;13.626;2023-02-11T14:47:16;63.95;;;38.03;;
40290;SDS011;26000;48.304;13.626;2023-02-11T14:49:44;65.50;;;39.50;;
40290;SDS011;26000;48.304;13.626;2023-02-11T14:52:18;64.57;;;38.63;;
40290;SDS011;26000;48.304;13.626;2023-02-11T14:54:51;65.55;;;38.78;;
40290;SDS011;26000;48.304;13.626;2023-02-11T14:57:38;59.25;;;36.08;;
40290;SDS011;26000;48.304;13.626;2023-02-11T15:00:13;60.97;;;36.20;;
40290;SDS011;26000;48.304;13.626;2023-02-11T15:02:45;61.58;;;36.85;;
40290;SDS011;26000;48.304;13.626;2023-02-11T15:07:46;60.72;;;37.17;;
40290;SDS011;26000;48.304;13.626;2023-02-11T15:10:15;58.20;;;37.05;;
40290;SDS011;26000;48.304;13.626;2023-02-11T15:12:53;63.38;;;38.45;;
40290;SDS011;26000;48.304;13.626;2023-02-11T15:15:19;65.53;;;39.15;;
40290;SDS011;26000;48.304;13.626;2023-02-11T15:17:45;61.13;;;38.22;;
40290;SDS011;26000;48.304;13.626;2023-02-11T15:20:17;60.00;;;37.00;;
40290;SDS011;26000;48.304;13.626;2023-02-11T15:22:46;73.07;;;40.13;;
40290;SDS011;26000;48.304;13.626;2023-02-11T15:25:15;65.75;;;39.38;;
40290;SDS011;26000;48.304;13.626;2023-02-11T15:27:44;56.80;;;36.75;;
40290;SDS011;26000;48.304;13.626;2023-02-11T15:32:50;55.00;;;36.15;;
40290;SDS011;26000;48.304;13.626;2023-02-11T15:35:21;59.97;;;36.10;;
40290;SDS011;26000;48.304;13.626;2023-02-11T15:37:47;61.10;;;37.38;;
40290;SDS011;26000;48.304;13.626;2023-02-11T15:40:23;61.72;;;38.10;;
40290;SDS011;26000;48.304;13.626;2023-02-11T15:42:56;67.80;;;38.88;;
40290;SDS011;26000;48.304;13.626;2023-02-11T15:45:25;62.25;;;38.20;;
40290;SDS011;26000;48.304;13.626;2023-02-11T15:48:03;59.53;;;36.90;;
40290;SDS011;26000;48.304;13.626;2023-02-11T15:50:31;58.22;;;35.20;;
40290;SDS011;26000;48.304;13.626;2023-02-11T15:53:02;58.53;;;35.40;;
40290;SDS011;26000;48.304;13.626;2023-02-11T15:55:44;56.47;;;35.15;;
40290;SDS011;26000;48.304;13.626;2023-02-11T15:58:10;53.75;;;35.15;;
40290;SDS011;26000;48.304;13.626;2023-02-11T16:00:37;57.97;;;35.95;;
40290;SDS011;26000;48.304;13.626;2023-02-11T16:03:23;60.92;;;35.83;;
40290;SDS011;26000;48.304;13.626;2023-02-11T16:05:52;59.67;;;36.47;;
40290;SDS011;26000;48.304;13.626;2023-02-11T16:08:22;59.53;;;36.85;;
40290;SDS011;26000;48.304;13.626;2023-02-11T16:10:57;58.47;;;36.60;;
40290;SDS011;26000;48.304;13.626;2023-02-11T16:13:27;60.53;;;36.28;;
40290;SDS011;26000;48.304;13.626;2023-02-11T16:16:01;173.45;;;78.15;;
40290;SDS011;26000;48.304;13.626;2023-02-11T16:18:31;99.38;;;52.28;;
40290;SDS011;26000;48.304;13.626;2023-02-11T16:20:58;62.42;;;38.22;;
40290;SDS011;26000;48.304;13.626;2023-02-11T16:23:26;56.58;;;35.88;;
40290;SDS011;26000;48.304;13.626;2023-02-11T16:26:02;65.13;;;37.25;;
40290;SDS011;26000;48.304;13.626;2023-02-11T16:28:35;68.35;;;38.20;;
40290;SDS011;26000;48.304;13.626;2023-02-11T16:31:01;65.75;;;38.22;;
40290;SDS011;26000;48.304;13.626;2023-02-11T16:33:27;66.18;;;37.63;;
40290;SDS011;26000;48.304;13.626;2023-02-11T16:35:53;64.30;;;37.65;;
40290;SDS011;26000;48.304;13.626;2023-02-11T16:38:19;62.00;;;37.33;;
40290;SDS011;26000;48.304;13.626;2023-02-11T16:40:45;64.20;;;37.13;;
40290;SDS011;26000;48.304;13.626;2023-02-11T16:43:14;61.10;;;36.97;;
40290;SDS011;26000;48.304;13.626;2023-02-11T16:45:42;62.00;;;37.47;;
40290;SDS011;26000;48.304;13.626;2023-02-11T16:48:08;64.28;;;39.10;;
40290;SDS011;26000;48.304;13.626;2023-02-11T16:50:36;65.05;;;40.08;;
40290;SDS011;26000;48.304;13.626;2023-02-11T16:53:02;62.92;;;39.03;;
40290;SDS011;26000;48.304;13.626;2023-02-11T16:55:30;64.50;;;39.70;;
40290;SDS011;26000;48.304;13.626;2023-02-11T16:57:57;62.67;;;38.55;;
40290;SDS011;26000;48.304;13.626;2023-02-11T17:00:23;61.47;;;38.72;;
40290;SDS011;26000;48.304;13.626;2023-02-11T17:02:48;65.40;;;40.13;;
40290;SDS011;26000;48.304;13.626;2023-02-11T17:05:15;61.95;;;38.72;;
40290;SDS011;26000;48.304;13.626;2023-02-11T17:07:43;66.72;;;37.63;;
40290;SDS011;26000;48.304;13.626;2023-02-11T17:10:20;67.95;;;41.17;;
40290;SDS011;26000;48.304;13.626;2023-02-11T17:12:47;80.93;;;44.72;;
40290;SDS011;26000;48.304;13.626;2023-02-11T17:15:13;73.32;;;43.03;;
40290;SDS011;26000;48.304;13.626;2023-02-11T17:17:39;70.18;;;42.83;;
40290;SDS011;26000;48.304;13.626;2023-02-11T17:20:05;72.30;;;42.15;;
40290;SDS011;26000;48.304;13.626;2023-02-11T17:22:32;66.30;;;41.38;;
40290;SDS011;26000;48.304;13.626;2023-02-11T17:24:58;65.93;;;40.47;;
40290;SDS011;26000;48.304;13.626;2023-02-11T17:27:23;65.55;;;41.30;;
40290;SDS011;26000;48.304;13.626;2023-02-11T17:29:49;68.97;;;41.17;;
40290;SDS011;26000;48.304;13.626;2023-02-11T17:32:15;73.60;;;44.55;;
40290;SDS011;26000;48.304;13.626;2023-02-11T17:34:40;86.00;;;51.15;;
40290;SDS011;26000;48.304;13.626;2023-02-11T17:37:06;82.85;;;50.08;;
40290;SDS011;26000;48.304;13.626;2023-02-11T17:39:36;86.22;;;50.65;;
40290;SDS011;26000;48.304;13.626;2023-02-11T17:42:03;87.60;;;51.92;;
40290;SDS011;26000;48.304;13.626;2023-02-11T17:44:30;87.22;;;52.60;;
40290;SDS011;26000;48.304;13.626;2023-02-11T17:46:56;93.10;;;56.85;;
40290;SDS011;26000;48.304;13.626;2023-02-11T17:49:21;75.50;;;47.10;;